createdAt,value
2023-04-20T00:02:19.723Z,94.48
2023-04-20T00:04:46.788Z,94.44
2023-04-20T00:07:13.545Z,94.29
2023-04-20T00:09:40.181Z,94.34
2023-04-20T00:12:07.020Z,95.04
2023-04-20T00:14:33.647Z,94.57
2023-04-20T00:17:00.324Z,94.09
2023-04-20T00:19:28.364Z,95.23
2023-04-20T00:21:55.061Z,94.88
2023-04-20T00:24:21.945Z,94.73
2023-04-20T00:26:48.581Z,95.49
2023-04-20T00:29:15.560Z,94.52
2023-04-20T00:31:42.476Z,94.29
2023-04-20T00:34:09.170Z,95.07
2023-04-20T00:36:35.884Z,94.52
2023-04-20T00:39:02.644Z,94.42
2023-04-20T00:41:29.336Z,94.74
2023-04-20T00:43:56.107Z,94.71
2023-04-20T00:46:22.834Z,94.78
2023-04-20T00:48:54.312Z,94.59
2023-04-20T00:51:22.559Z,95.40
2023-04-20T00:53:49.718Z,95.78
2023-04-20T00:56:16.750Z,95.26
2023-04-20T00:58:43.829Z,95.76
2023-04-20T01:01:11.572Z,95.84
2023-04-20T01:03:42.213Z,95.75
2023-04-20T01:06:09.676Z,96.18
2023-04-20T01:08:36.764Z,95.96
2023-04-20T01:11:04.117Z,96.16
2023-04-20T01:13:31.000Z,96.13
2023-04-20T01:16:00.467Z,96.60
2023-04-20T01:18:27.788Z,96.02
2023-04-20T01:20:54.410Z,95.20
2023-04-20T01:23:21.523Z,94.97
2023-04-20T01:25:48.465Z,95.36
2023-04-20T01:28:15.245Z,94.50
2023-04-20T01:30:41.904Z,94.56
2023-04-20T01:33:08.695Z,94.74
2023-04-20T01:35:36.446Z,94.92
2023-04-20T01:38:03.178Z,94.31
2023-04-20T01:40:31.015Z,93.95
2023-04-20T01:42:59.306Z,93.87
2023-04-20T01:45:26.187Z,93.91
2023-04-20T01:47:53.252Z,94.33
2023-04-20T01:50:19.900Z,94.10
2023-04-20T01:52:46.632Z,94.85
2023-04-20T01:55:13.409Z,95.39
2023-04-20T01:57:40.287Z,94.96
2023-04-20T02:00:09.851Z,94.78
2023-04-20T02:02:44.022Z,95.30
2023-04-20T02:05:11.150Z,95.16
2023-04-20T02:07:37.902Z,94.82
2023-04-20T02:10:07.160Z,94.81
2023-04-20T02:12:33.998Z,94.10
2023-04-20T02:15:00.758Z,93.87
2023-04-20T02:17:27.433Z,94.56
2023-04-20T02:19:54.100Z,94.43
2023-04-20T02:22:20.785Z,94.74
2023-04-20T02:24:47.706Z,94.18
2023-04-20T02:27:14.650Z,94.14
2023-04-20T02:29:41.528Z,93.75
2023-04-20T02:32:08.348Z,94.17
2023-04-20T02:34:35.122Z,95.02
2023-04-20T02:37:01.969Z,94.48
2023-04-20T02:39:28.653Z,93.48
2023-04-20T02:41:55.346Z,93.62
2023-04-20T02:44:22.117Z,93.95
2023-04-20T02:46:49.289Z,93.96
2023-04-20T02:49:16.996Z,93.50
2023-04-20T02:51:44.800Z,94.04
2023-04-20T02:54:11.533Z,94.20
2023-04-20T02:56:38.560Z,94.21
2023-04-20T02:59:08.763Z,93.90
2023-04-20T03:02:01.804Z,94.60
2023-04-20T03:04:31.002Z,94.54
2023-04-20T03:07:07.936Z,94.61
2023-04-20T03:09:37.495Z,94.13
2023-04-20T03:12:09.965Z,92.52
2023-04-20T03:14:55.469Z,93.90
2023-04-20T03:17:31.437Z,93.62
2023-04-20T03:19:58.134Z,93.56
2023-04-20T03:22:24.776Z,93.20
2023-04-20T03:24:55.399Z,92.38
2023-04-20T03:27:46.908Z,93.11
2023-04-20T03:30:15.143Z,92.45
2023-04-20T03:32:43.422Z,91.92
2023-04-20T03:35:10.486Z,91.73
2023-04-20T03:37:38.076Z,92.53
2023-04-20T03:40:09.485Z,92.49
2023-04-20T03:42:37.397Z,92.16
2023-04-20T03:45:07.062Z,92.65
2023-04-20T03:47:33.995Z,91.84
2023-04-20T03:50:00.954Z,92.22
2023-04-20T03:52:27.696Z,91.81
2023-04-20T03:54:54.533Z,92.19
2023-04-20T03:57:21.333Z,92.22
2023-04-20T03:59:48.109Z,92.13
2023-04-20T04:02:18.435Z,92.22
2023-04-20T04:04:46.821Z,92.83
2023-04-20T04:07:13.674Z,92.83
2023-04-20T04:09:41.957Z,92.80
2023-04-20T04:12:09.441Z,93.47
2023-04-20T04:14:36.146Z,93.43
2023-04-20T04:17:03.577Z,92.91
2023-04-20T04:19:32.233Z,93.44
2023-04-20T04:21:59.311Z,93.87
2023-04-20T04:24:26.829Z,93.68
2023-04-20T04:27:05.581Z,93.76
2023-04-20T04:29:38.713Z,94.51
2023-04-20T04:32:09.612Z,95.02
2023-04-20T04:34:37.751Z,93.73
2023-04-20T04:37:04.704Z,94.00
2023-04-20T04:39:46.350Z,93.48
2023-04-20T04:42:19.120Z,93.40
2023-04-20T04:44:47.203Z,94.51
2023-04-20T04:47:22.168Z,93.75
2023-04-20T04:49:50.252Z,93.09
2023-04-20T04:52:16.952Z,93.77
2023-04-20T04:54:43.617Z,93.56
2023-04-20T04:57:10.410Z,93.59
2023-04-20T04:59:37.389Z,92.85
2023-04-20T05:02:04.198Z,93.88
2023-04-20T05:04:30.951Z,93.75
2023-04-20T05:06:57.858Z,93.62
2023-04-20T05:09:24.567Z,94.57
2023-04-20T05:11:51.207Z,94.90
2023-04-20T05:14:17.836Z,94.60
2023-04-20T05:16:44.550Z,94.26
2023-04-20T05:19:11.286Z,94.53
2023-04-20T05:21:39.295Z,94.21
2023-04-20T05:24:06.604Z,93.96
2023-04-20T05:26:33.309Z,94.80
2023-04-20T05:29:00.089Z,95.05
2023-04-20T05:31:26.951Z,94.85
2023-04-20T05:33:53.590Z,93.51
2023-04-20T05:36:20.846Z,94.67
2023-04-20T05:38:47.664Z,94.94
2023-04-20T05:41:14.323Z,94.24
2023-04-20T05:43:41.101Z,94.79
2023-04-20T05:46:07.810Z,94.19
2023-04-20T05:48:37.398Z,94.19
2023-04-20T05:51:04.272Z,94.42
2023-04-20T05:53:31.111Z,93.71
2023-04-20T05:55:58.039Z,93.90
2023-04-20T05:58:24.963Z,95.24
2023-04-20T06:00:51.550Z,95.04
2023-04-20T06:03:18.589Z,94.84
2023-04-20T06:05:45.448Z,94.30
2023-04-20T06:08:12.684Z,94.67
2023-04-20T06:10:39.363Z,94.25
2023-04-20T06:13:06.113Z,94.59
2023-04-20T06:15:33.048Z,94.15
2023-04-20T06:18:01.257Z,94.52
2023-04-20T06:20:28.136Z,92.71
2023-04-20T06:22:54.955Z,93.49
2023-04-20T06:25:21.687Z,94.63
2023-04-20T06:27:49.678Z,91.42
2023-04-20T06:30:18.051Z,93.20
2023-04-20T06:32:44.729Z,92.33
2023-04-20T06:35:11.637Z,92.64
2023-04-20T06:37:38.880Z,91.91
2023-04-20T06:40:08.516Z,91.89
2023-04-20T06:42:35.928Z,91.94
2023-04-20T06:45:03.567Z,91.46
2023-04-20T06:47:34.136Z,92.26
2023-04-20T06:50:02.650Z,91.22
2023-04-20T06:52:31.082Z,91.63
2023-04-20T06:54:59.814Z,91.87
2023-04-20T06:57:26.439Z,91.92
2023-04-20T06:59:53.130Z,91.46
2023-04-20T07:02:19.889Z,91.34
2023-04-20T07:04:46.613Z,91.59
2023-04-20T07:07:13.297Z,90.33
2023-04-20T07:09:39.960Z,89.71
2023-04-20T07:12:06.918Z,90.04
2023-04-20T07:14:33.729Z,88.01
2023-04-20T07:17:00.534Z,88.96
2023-04-20T07:19:27.196Z,89.54
2023-04-20T07:21:53.979Z,87.81
2023-04-20T07:24:20.633Z,88.01
2023-04-20T07:26:47.341Z,88.53
2023-04-20T07:29:13.983Z,88.71
2023-04-20T07:31:40.830Z,88.59
2023-04-20T07:34:07.532Z,88.50
2023-04-20T07:36:34.234Z,88.17
2023-04-20T07:39:00.911Z,88.69
2023-04-20T07:41:27.533Z,87.71
2023-04-20T07:43:54.286Z,88.50
2023-04-20T07:46:22.530Z,87.95
2023-04-20T07:48:49.628Z,86.88
2023-04-20T07:51:16.315Z,88.03
2023-04-20T07:53:43.864Z,88.93
2023-04-20T07:56:10.778Z,88.04
2023-04-20T07:58:39.127Z,87.46
2023-04-20T08:01:06.076Z,88.07
2023-04-20T08:03:33.835Z,87.17
2023-04-20T08:06:00.758Z,86.77
2023-04-20T08:08:27.641Z,86.94
2023-04-20T08:10:57.587Z,87.54
2023-04-20T08:13:24.714Z,87.22
2023-04-20T08:15:51.468Z,85.52
2023-04-20T08:18:18.681Z,85.27
2023-04-20T08:20:46.798Z,84.96
2023-04-20T08:23:14.215Z,82.80
2023-04-20T08:25:41.094Z,83.90
2023-04-20T08:28:11.950Z,84.37
2023-04-20T08:30:41.255Z,81.92
2023-04-20T08:33:08.076Z,84.00
2023-04-20T08:35:34.766Z,82.88
2023-04-20T08:38:01.573Z,82.38
2023-04-20T08:40:30.061Z,81.64
2023-04-20T08:42:57.021Z,82.66
2023-04-20T08:45:23.755Z,84.10
2023-04-20T08:47:50.691Z,81.31
2023-04-20T08:50:19.281Z,83.72
2023-04-20T08:52:46.158Z,81.20
2023-04-20T08:55:17.599Z,82.32
2023-04-20T08:57:44.770Z,82.79
2023-04-20T09:00:14.027Z,82.10
2023-04-20T09:02:54.773Z,81.81
2023-04-20T09:05:26.313Z,80.97
2023-04-20T09:07:58.168Z,82.32
2023-04-20T09:10:26.338Z,81.97
2023-04-20T09:12:53.549Z,81.62
2023-04-20T09:15:30.735Z,80.81
2023-04-20T09:17:58.249Z,79.66
2023-04-20T09:20:35.097Z,78.96
2023-04-20T09:23:12.537Z,76.38
2023-04-20T09:25:41.036Z,80.31
2023-04-20T09:28:07.917Z,76.39
2023-04-20T09:30:49.209Z,80.56
2023-04-20T09:33:16.121Z,80.61
2023-04-20T09:35:44.951Z,82.68
2023-04-20T09:38:16.289Z,81.24
2023-04-20T09:40:43.119Z,81.36
2023-04-20T09:43:17.699Z,79.80
2023-04-20T09:45:44.493Z,80.00
2023-04-20T09:48:11.993Z,81.39
2023-04-20T09:50:48.573Z,80.35
2023-04-20T09:53:19.654Z,80.76
2023-04-20T09:55:48.669Z,80.90
2023-04-20T09:58:18.288Z,81.35
2023-04-20T10:00:45.038Z,80.65
2023-04-20T10:03:12.760Z,79.92
2023-04-20T10:05:39.903Z,81.21
2023-04-20T10:08:07.155Z,79.94
2023-04-20T10:10:48.586Z,81.54
2023-04-20T10:13:19.371Z,79.05
2023-04-20T10:15:46.368Z,78.45
2023-04-20T10:18:20.054Z,79.64
2023-04-20T10:20:47.352Z,80.53
2023-04-20T10:23:18.656Z,78.75
2023-04-20T10:26:00.576Z,80.29
2023-04-20T10:28:41.675Z,77.83
2023-04-20T10:31:09.182Z,78.46
2023-04-20T10:33:35.846Z,81.21
2023-04-20T10:36:02.592Z,77.16
2023-04-20T10:38:31.108Z,78.83
2023-04-20T10:40:58.185Z,76.35
2023-04-20T10:43:24.892Z,78.08
2023-04-20T10:45:51.590Z,79.16
2023-04-20T10:48:18.562Z,81.37
2023-04-20T10:50:45.434Z,82.01
2023-04-20T10:53:20.805Z,80.51
2023-04-20T10:55:48.084Z,77.66
2023-04-20T10:58:22.736Z,77.55
2023-04-20T11:01:07.685Z,80.86
2023-04-20T11:03:34.951Z,78.74
2023-04-20T11:06:03.826Z,78.29
2023-04-20T11:08:38.915Z,78.12
2023-04-20T11:11:06.068Z,80.05
2023-04-20T11:13:33.251Z,81.32
2023-04-20T11:16:00.423Z,80.28
2023-04-20T11:18:27.592Z,82.88
2023-04-20T11:20:55.865Z,81.40
2023-04-20T11:23:24.639Z,82.15
2023-04-20T11:25:56.370Z,83.94
2023-04-20T11:28:23.766Z,82.94
2023-04-20T11:30:50.980Z,82.75
2023-04-20T11:33:30.909Z,82.49
2023-04-20T11:35:58.878Z,81.72
2023-04-20T11:38:33.136Z,82.97
2023-04-20T11:41:04.730Z,81.08
2023-04-20T11:43:36.035Z,80.06
2023-04-20T11:46:03.386Z,79.50
2023-04-20T11:48:33.200Z,81.79
2023-04-20T11:50:59.943Z,81.50
2023-04-20T11:53:26.841Z,80.08
2023-04-20T11:55:53.498Z,82.11
2023-04-20T11:58:20.327Z,81.04
2023-04-20T12:00:47.134Z,79.87
2023-04-20T12:03:13.919Z,80.06
2023-04-20T12:05:40.892Z,76.03
2023-04-20T12:08:08.341Z,77.00
2023-04-20T12:10:35.208Z,77.39
2023-04-20T12:13:01.831Z,77.61
2023-04-20T12:15:28.582Z,74.09
2023-04-20T12:17:55.809Z,76.56
2023-04-20T12:20:22.721Z,76.77
2023-04-20T12:22:49.426Z,78.40
2023-04-20T12:25:16.132Z,77.87
2023-04-20T12:27:42.890Z,79.35
2023-04-20T12:30:10.073Z,77.05
2023-04-20T12:32:36.776Z,79.96
2023-04-20T12:35:03.584Z,77.30
2023-04-20T12:37:30.955Z,77.24
2023-04-20T12:39:57.845Z,76.59
2023-04-20T12:42:24.651Z,75.68
2023-04-20T12:44:54.753Z,77.71
2023-04-20T12:47:21.545Z,76.05
2023-04-20T12:49:48.366Z,76.62
2023-04-20T12:52:15.141Z,76.77
2023-04-20T12:54:43.979Z,76.25
2023-04-20T12:57:11.051Z,77.91
2023-04-20T12:59:37.730Z,77.31
2023-04-20T13:02:04.543Z,75.88
2023-04-20T13:04:31.384Z,74.27
2023-04-20T13:06:58.329Z,75.58
2023-04-20T13:09:27.085Z,74.73
2023-04-20T13:11:54.006Z,76.10
2023-04-20T13:14:21.021Z,77.05
2023-04-20T13:16:48.216Z,77.89
2023-04-20T13:19:15.583Z,75.91
2023-04-20T13:21:42.273Z,70.37
2023-04-20T13:24:09.565Z,73.21
2023-04-20T13:26:36.771Z,73.03
2023-04-20T13:29:03.608Z,71.74
2023-04-20T13:31:31.270Z,70.87
2023-04-20T13:33:58.017Z,72.13
2023-04-20T13:36:25.282Z,71.33
2023-04-20T13:38:53.578Z,70.25
2023-04-20T13:41:20.473Z,71.52
2023-04-20T13:43:47.278Z,73.67
2023-04-20T13:46:15.334Z,70.78
2023-04-20T13:48:42.225Z,68.88
2023-04-20T13:51:09.053Z,72.30
2023-04-20T13:53:35.765Z,71.02
2023-04-20T13:56:02.541Z,69.14
2023-04-20T13:58:29.274Z,68.72
2023-04-20T14:00:56.152Z,69.98
2023-04-20T14:03:25.280Z,71.65
2023-04-20T14:05:52.245Z,71.38
2023-04-20T14:08:19.865Z,69.51
2023-04-20T14:10:46.560Z,72.03
2023-04-20T14:13:13.317Z,71.70
2023-04-20T14:15:40.256Z,71.49
2023-04-20T14:18:07.269Z,69.31
2023-04-20T14:20:33.956Z,72.02
2023-04-20T14:23:00.712Z,68.82
2023-04-20T14:25:27.397Z,69.01
2023-04-20T14:27:55.248Z,70.61
2023-04-20T14:30:22.459Z,68.97
2023-04-20T14:32:59.992Z,68.36
2023-04-20T14:35:28.284Z,69.60
2023-04-20T14:37:54.922Z,69.24
2023-04-20T14:40:22.117Z,68.56
2023-04-20T14:42:48.829Z,68.99
2023-04-20T14:45:15.597Z,67.92
2023-04-20T14:47:42.437Z,67.19
2023-04-20T14:50:10.279Z,67.64
2023-04-20T14:52:36.992Z,67.45
2023-04-20T14:55:04.218Z,66.02
2023-04-20T14:57:31.702Z,64.87
2023-04-20T14:59:58.351Z,65.06
2023-04-20T15:02:25.544Z,66.50
2023-04-20T15:04:52.675Z,67.98
2023-04-20T15:07:19.517Z,65.80
2023-04-20T15:09:46.472Z,63.21
2023-04-20T15:12:13.295Z,64.96
2023-04-20T15:14:39.967Z,61.70
2023-04-20T15:17:06.892Z,60.65
2023-04-20T15:19:33.546Z,60.38
2023-04-20T15:22:00.985Z,59.72
2023-04-20T15:24:27.718Z,60.39
2023-04-20T15:26:54.349Z,63.44
2023-04-20T15:29:21.359Z,59.21
2023-04-20T15:31:48.072Z,60.67
2023-04-20T15:34:17.183Z,60.05
2023-04-20T15:36:44.504Z,61.04
2023-04-20T15:39:11.436Z,58.04
2023-04-20T15:41:38.379Z,58.93
2023-04-20T15:44:05.793Z,60.00
2023-04-20T15:46:32.912Z,59.57
2023-04-20T15:48:59.740Z,60.37
2023-04-20T15:51:28.050Z,58.64
2023-04-20T15:53:54.583Z,59.33
2023-04-20T15:56:22.580Z,57.28
2023-04-20T15:58:50.586Z,55.37
2023-04-20T16:01:21.030Z,55.93
2023-04-20T16:03:49.793Z,56.62
2023-04-20T16:06:17.076Z,57.45
2023-04-20T16:08:43.965Z,59.82
2023-04-20T16:11:10.751Z,61.61
2023-04-20T16:13:37.750Z,61.27
2023-04-20T16:16:04.628Z,62.32
2023-04-20T16:18:32.939Z,62.41
2023-04-20T16:20:59.643Z,64.62
2023-04-20T16:23:26.483Z,63.61
2023-04-20T16:25:53.123Z,66.03
2023-04-20T16:28:19.984Z,66.35
2023-04-20T16:30:46.683Z,67.02
2023-04-20T16:33:14.052Z,68.33
2023-04-20T16:35:41.346Z,64.08
2023-04-20T16:38:10.519Z,66.38
2023-04-20T16:40:37.538Z,65.86
2023-04-20T16:43:04.210Z,64.90
2023-04-20T16:45:33.205Z,66.01
2023-04-20T16:48:00.236Z,71.34
2023-04-20T16:50:26.911Z,69.50
2023-04-20T16:52:53.730Z,69.28
2023-04-20T16:55:20.792Z,67.93
2023-04-20T16:57:47.489Z,67.21
2023-04-20T17:00:17.007Z,67.78
2023-04-20T17:02:44.508Z,69.11
2023-04-20T17:05:11.184Z,71.15
2023-04-20T17:07:37.901Z,68.63
2023-04-20T17:10:05.949Z,69.61
2023-04-20T17:12:32.796Z,70.08
2023-04-20T17:15:00.711Z,70.48
2023-04-20T17:17:28.328Z,68.45
2023-04-20T17:19:55.107Z,68.50
2023-04-20T17:22:22.085Z,69.03
2023-04-20T17:24:48.854Z,65.51
2023-04-20T17:27:16.121Z,67.59
2023-04-20T17:29:44.726Z,67.50
2023-04-20T17:32:11.935Z,65.27
2023-04-20T17:34:40.066Z,65.78
2023-04-20T17:37:07.110Z,65.69
2023-04-20T17:39:33.783Z,65.33
2023-04-20T17:42:00.498Z,64.81
2023-04-20T17:44:27.235Z,65.50
2023-04-20T17:46:53.915Z,65.25
2023-04-20T17:49:20.611Z,65.51
2023-04-20T17:51:47.386Z,64.13
2023-04-20T17:54:15.647Z,63.42
2023-04-20T17:56:43.555Z,64.95
2023-04-20T17:59:12.177Z,65.91
2023-04-20T18:01:39.268Z,66.75
2023-04-20T18:04:06.324Z,66.97
2023-04-20T18:06:33.837Z,67.04
2023-04-20T18:09:01.600Z,66.42
2023-04-20T18:11:28.285Z,66.46
2023-04-20T18:13:55.050Z,67.82
2023-04-20T18:16:21.810Z,67.51
2023-04-20T18:18:50.426Z,66.67
2023-04-20T18:21:16.948Z,69.13
2023-04-20T18:23:43.667Z,68.16
2023-04-20T18:26:17.066Z,66.52
2023-04-20T18:28:44.917Z,65.98
2023-04-20T18:31:12.512Z,65.51
2023-04-20T18:33:39.318Z,65.08
2023-04-20T18:36:06.406Z,63.87
2023-04-20T18:38:35.251Z,64.62
2023-04-20T18:41:02.374Z,64.93
2023-04-20T18:43:29.077Z,65.30
2023-04-20T18:45:55.760Z,64.48
2023-04-20T18:48:22.438Z,62.72
2023-04-20T18:50:49.154Z,62.59
2023-04-20T18:53:15.911Z,60.70
2023-04-20T18:55:42.533Z,61.48
2023-04-20T18:58:09.234Z,63.13
2023-04-20T19:00:35.953Z,65.72
2023-04-20T19:03:02.908Z,66.55
2023-04-20T19:05:30.859Z,64.97
2023-04-20T19:07:57.609Z,63.89
2023-04-20T19:10:25.697Z,64.60
2023-04-20T19:12:52.432Z,67.19
2023-04-20T19:15:25.625Z,66.26
2023-04-20T19:17:54.582Z,65.14
2023-04-20T19:20:21.963Z,64.41
2023-04-20T19:22:48.783Z,66.04
2023-04-20T19:25:15.703Z,67.55
2023-04-20T19:27:42.391Z,68.44
2023-04-20T19:30:09.826Z,69.99
2023-04-20T19:32:36.528Z,69.79
2023-04-20T19:35:03.575Z,70.80
2023-04-20T19:37:30.721Z,71.55
2023-04-20T19:39:57.366Z,70.31
2023-04-20T19:42:24.009Z,70.37
2023-04-20T19:44:50.779Z,72.61
2023-04-20T19:47:17.523Z,72.30
2023-04-20T19:49:44.369Z,71.48
2023-04-20T19:52:11.145Z,73.25
2023-04-20T19:54:37.814Z,73.27
2023-04-20T19:57:04.559Z,74.35
2023-04-20T19:59:32.836Z,76.35
2023-04-20T20:01:59.573Z,75.16
2023-04-20T20:04:27.082Z,75.91
2023-04-20T20:06:53.964Z,75.39
2023-04-20T20:09:23.776Z,74.80
2023-04-20T20:11:51.058Z,74.82
2023-04-20T20:14:19.376Z,76.19
2023-04-20T20:16:46.119Z,76.27
2023-04-20T20:19:12.821Z,76.24
2023-04-20T20:21:39.626Z,75.39
2023-04-20T20:24:06.542Z,74.43
2023-04-20T20:26:33.214Z,74.02
2023-04-20T20:28:59.842Z,74.92
2023-04-20T20:31:26.634Z,75.18
2023-04-20T20:33:53.371Z,77.15
2023-04-20T20:36:20.373Z,76.70
2023-04-20T20:38:47.283Z,75.91
2023-04-20T20:41:14.152Z,77.00
2023-04-20T20:43:42.537Z,77.76
2023-04-20T20:46:09.870Z,78.83
2023-04-20T20:48:36.742Z,78.58
2023-04-20T20:51:03.580Z,79.54
2023-04-20T20:53:30.413Z,79.62
2023-04-20T20:55:57.199Z,79.02
2023-04-20T20:58:23.931Z,80.81
2023-04-20T21:00:50.693Z,79.72
2023-04-20T21:03:17.674Z,81.44
2023-04-20T21:05:44.472Z,82.19
2023-04-20T21:08:11.316Z,82.38
2023-04-20T21:10:38.018Z,82.47
2023-04-20T21:13:05.555Z,82.82
2023-04-20T21:15:32.262Z,82.95
2023-04-20T21:17:59.016Z,82.98
2023-04-20T21:20:25.883Z,83.63
2023-04-20T21:22:52.664Z,84.10
2023-04-20T21:25:19.487Z,84.03
2023-04-20T21:27:46.329Z,83.44
2023-04-20T21:30:13.460Z,83.65
2023-04-20T21:32:40.288Z,84.19
2023-04-20T21:35:07.358Z,84.58
2023-04-20T21:37:34.159Z,84.26
2023-04-20T21:40:00.807Z,84.42
2023-04-20T21:42:27.442Z,84.50
2023-04-20T21:44:54.198Z,85.62
2023-04-20T21:47:21.339Z,85.65
2023-04-20T21:49:49.058Z,84.50
2023-04-20T21:52:16.013Z,85.42
2023-04-20T21:54:42.744Z,85.81
2023-04-20T21:57:10.090Z,85.98
2023-04-20T21:59:36.903Z,85.74
2023-04-20T22:02:04.598Z,85.29
2023-04-20T22:04:32.300Z,86.46
2023-04-20T22:07:00.473Z,85.80
2023-04-20T22:09:27.303Z,85.92
2023-04-20T22:11:54.037Z,86.88
2023-04-20T22:14:20.899Z,87.40
2023-04-20T22:16:47.982Z,86.63
2023-04-20T22:19:14.916Z,85.08
2023-04-20T22:21:43.043Z,86.26
2023-04-20T22:24:09.769Z,86.52
2023-04-20T22:26:36.558Z,86.20
2023-04-20T22:29:03.241Z,84.91
2023-04-20T22:31:30.060Z,86.39
2023-04-20T22:33:56.857Z,86.95
2023-04-20T22:36:23.640Z,87.95
2023-04-20T22:38:50.439Z,86.09
2023-04-20T22:41:17.727Z,86.53
2023-04-20T22:43:44.660Z,85.21
2023-04-20T22:46:11.347Z,85.52
2023-04-20T22:48:38.319Z,86.41
2023-04-20T22:51:05.141Z,86.02
2023-04-20T22:53:31.838Z,87.25
2023-04-20T22:56:08.832Z,88.26
2023-04-20T22:58:35.493Z,88.68
2023-04-20T23:01:02.574Z,87.76
2023-04-20T23:03:29.425Z,87.22
2023-04-20T23:05:57.724Z,85.80
2023-04-20T23:08:25.794Z,86.96
2023-04-20T23:10:55.330Z,88.29
2023-04-20T23:13:24.793Z,86.95
2023-04-20T23:15:52.277Z,87.87
2023-04-20T23:18:19.057Z,87.13
2023-04-20T23:20:45.872Z,87.66
2023-04-20T23:23:12.543Z,88.23
2023-04-20T23:25:39.438Z,88.37
2023-04-20T23:28:06.112Z,88.28
2023-04-20T23:30:32.918Z,88.96
2023-04-20T23:32:59.583Z,89.25
2023-04-20T23:35:26.340Z,88.93
2023-04-20T23:37:55.176Z,89.00
2023-04-20T23:40:21.943Z,88.82
2023-04-20T23:42:48.565Z,88.74
2023-04-20T23:45:15.391Z,86.31
2023-04-20T23:47:42.026Z,87.58
2023-04-20T23:50:09.311Z,89.01
2023-04-20T23:52:36.270Z,88.87
2023-04-20T23:55:04.001Z,88.02
2023-04-20T23:57:30.679Z,88.74
2023-04-20T23:59:57.376Z,89.31
